createdAt,value
2023-03-15T00:00:17.964Z,3.29
2023-03-15T00:01:17.953Z,3.24
2023-03-15T00:02:17.970Z,3.38
2023-03-15T00:03:17.973Z,3.27
2023-03-15T00:04:17.936Z,3.20
2023-03-15T00:05:17.835Z,3.23
2023-03-15T00:06:17.888Z,3.20
2023-03-15T00:07:17.854Z,3.20
2023-03-15T00:08:17.748Z,3.25
2023-03-15T00:09:17.787Z,3.28
2023-03-15T00:10:17.690Z,3.32
2023-03-15T00:11:17.790Z,3.27
2023-03-15T00:12:17.676Z,3.22
2023-03-15T00:13:17.636Z,3.26
2023-03-15T00:14:17.675Z,3.31
2023-03-15T00:15:17.565Z,3.28
2023-03-15T00:16:17.880Z,3.21
2023-03-15T00:17:17.574Z,3.22
2023-03-15T00:18:17.499Z,3.21
2023-03-15T00:19:17.500Z,3.13
2023-03-15T00:20:17.485Z,3.13
2023-03-15T00:21:17.439Z,3.18
2023-03-15T00:22:17.485Z,3.17
2023-03-15T00:23:17.374Z,3.13
2023-03-15T00:24:17.444Z,3.22
2023-03-15T00:25:17.366Z,3.23
2023-03-15T00:26:17.286Z,3.19
2023-03-15T00:27:17.296Z,3.17
2023-03-15T00:28:17.281Z,3.10
2023-03-15T00:29:17.219Z,3.13
2023-03-15T00:30:17.220Z,3.14
2023-03-15T00:31:17.255Z,3.13
2023-03-15T00:32:17.128Z,3.27
2023-03-15T00:33:17.111Z,3.26
2023-03-15T00:34:17.155Z,3.30
2023-03-15T00:35:17.067Z,3.26
2023-03-15T00:36:17.081Z,3.31
2023-03-15T00:37:17.036Z,3.31
2023-03-15T00:38:16.988Z,3.32
2023-03-15T00:39:16.960Z,3.31
2023-03-15T00:40:16.982Z,3.26
2023-03-15T00:41:16.939Z,3.32
2023-03-15T00:42:16.987Z,3.31
2023-03-15T00:43:16.954Z,3.31
2023-03-15T00:44:16.932Z,3.40
2023-03-15T00:45:16.883Z,3.35
2023-03-15T00:46:16.859Z,3.42
2023-03-15T00:47:16.775Z,3.45
2023-03-15T00:48:16.758Z,3.48
2023-03-15T00:49:16.758Z,3.47
2023-03-15T00:50:16.772Z,3.55
2023-03-15T00:51:16.682Z,3.53
2023-03-15T00:52:16.666Z,3.55
2023-03-15T00:53:16.663Z,3.62
2023-03-15T00:54:16.634Z,3.62
2023-03-15T00:55:16.610Z,3.62
2023-03-15T00:56:16.636Z,3.63
2023-03-15T00:57:16.589Z,3.65
2023-03-15T00:58:16.585Z,3.76
2023-03-15T00:59:16.612Z,3.74
2023-03-15T01:00:16.507Z,3.78
2023-03-15T01:01:16.475Z,3.80
2023-03-15T01:02:16.469Z,3.70
2023-03-15T01:03:16.501Z,3.75
2023-03-15T01:04:16.430Z,3.80
2023-03-15T01:05:16.435Z,3.78
2023-03-15T01:06:16.382Z,3.80
2023-03-15T01:07:16.386Z,3.83
2023-03-15T01:08:16.308Z,3.92
2023-03-15T01:09:16.297Z,3.85
2023-03-15T01:10:16.340Z,3.82
2023-03-15T01:11:16.234Z,3.84
2023-03-15T01:12:16.205Z,3.83
2023-03-15T01:13:16.179Z,3.88
2023-03-15T01:14:16.214Z,3.84
2023-03-15T01:15:16.161Z,3.90
2023-03-15T01:16:16.185Z,3.87
2023-03-15T01:17:16.100Z,3.98
2023-03-15T01:18:16.076Z,3.96
2023-03-15T01:19:16.075Z,3.94
2023-03-15T01:20:16.072Z,3.95
2023-03-15T01:21:16.032Z,3.96
2023-03-15T01:22:16.006Z,3.96
2023-03-15T01:23:16.853Z,3.93
2023-03-15T01:24:15.971Z,3.88
2023-03-15T01:25:15.939Z,3.96
2023-03-15T01:26:15.933Z,3.79
2023-03-15T01:27:15.890Z,3.78
2023-03-15T01:28:15.936Z,3.69
2023-03-15T01:29:15.952Z,3.73
2023-03-15T01:30:15.841Z,3.70
2023-03-15T01:31:15.838Z,3.55
2023-03-15T01:32:15.758Z,3.51
2023-03-15T01:33:15.827Z,3.51
2023-03-15T01:34:15.709Z,3.51
2023-03-15T01:35:15.687Z,3.53
2023-03-15T01:36:15.725Z,3.55
2023-03-15T01:37:15.642Z,3.54
2023-03-15T01:38:15.637Z,3.43
2023-03-15T01:39:15.640Z,3.47
2023-03-15T01:40:15.630Z,3.46
2023-03-15T01:41:15.562Z,3.39
2023-03-15T01:42:15.575Z,3.41
2023-03-15T01:43:15.518Z,3.43
2023-03-15T01:44:15.463Z,3.46
2023-03-15T01:45:15.469Z,3.51
2023-03-15T01:46:15.521Z,3.44
2023-03-15T01:47:15.423Z,3.45
2023-03-15T01:48:15.441Z,3.45
2023-03-15T01:49:15.370Z,3.45
2023-03-15T01:50:15.400Z,3.45
2023-03-15T01:51:15.351Z,3.48
2023-03-15T01:52:15.441Z,3.44
2023-03-15T01:53:15.295Z,3.45
2023-03-15T01:54:15.291Z,3.47
2023-03-15T01:55:15.341Z,3.51
2023-03-15T01:56:15.234Z,3.57
2023-03-15T01:57:15.235Z,3.58
2023-03-15T01:58:15.182Z,3.73
2023-03-15T01:59:15.161Z,3.65
2023-03-15T02:00:15.210Z,3.65
2023-03-15T02:01:15.165Z,3.68
2023-03-15T02:02:15.200Z,3.65
2023-03-15T02:03:15.108Z,3.60
2023-03-15T02:04:15.045Z,3.61
2023-03-15T02:05:15.006Z,3.47
2023-03-15T02:06:15.035Z,3.45
2023-03-15T02:07:14.976Z,3.50
2023-03-15T02:08:14.941Z,3.56
2023-03-15T02:09:15.059Z,3.48
2023-03-15T02:10:14.910Z,3.49
2023-03-15T02:11:14.891Z,3.48
2023-03-15T02:12:14.852Z,3.49
2023-03-15T02:13:14.854Z,3.51
2023-03-15T02:14:14.815Z,3.48
2023-03-15T02:15:14.843Z,3.44
2023-03-15T02:16:14.879Z,3.45
2023-03-15T02:17:14.749Z,3.42
2023-03-15T02:18:14.746Z,3.40
2023-03-15T02:19:14.742Z,3.45
2023-03-15T02:20:14.692Z,3.38
2023-03-15T02:21:14.732Z,3.40
2023-03-15T02:22:14.700Z,3.32
2023-03-15T02:23:14.775Z,3.36
2023-03-15T02:24:14.624Z,3.31
2023-03-15T02:25:14.591Z,3.40
2023-03-15T02:26:14.574Z,3.30
2023-03-15T02:27:14.618Z,3.31
2023-03-15T02:28:14.534Z,3.31
2023-03-15T02:29:14.544Z,3.34
2023-03-15T02:30:14.475Z,3.31
2023-03-15T02:31:14.517Z,3.31
2023-03-15T02:32:14.469Z,3.34
2023-03-15T02:33:14.397Z,3.31
2023-03-15T02:34:14.400Z,3.31
2023-03-15T02:35:14.446Z,3.33
2023-03-15T02:36:14.393Z,3.34
2023-03-15T02:37:14.416Z,3.32
2023-03-15T02:38:14.333Z,3.32
2023-03-15T02:39:14.283Z,3.29
2023-03-15T02:40:14.274Z,3.35
2023-03-15T02:41:14.297Z,3.36
2023-03-15T02:42:14.250Z,3.30
2023-03-15T02:43:14.209Z,3.25
2023-03-15T02:44:14.240Z,3.28
2023-03-15T02:45:14.184Z,3.31
2023-03-15T02:46:14.256Z,3.31
2023-03-15T02:47:14.125Z,3.28
2023-03-15T02:48:14.102Z,3.26
2023-03-15T02:49:14.080Z,3.32
2023-03-15T02:50:14.083Z,3.31
2023-03-15T02:51:14.088Z,3.24
2023-03-15T02:52:14.174Z,3.28
2023-03-15T02:53:14.009Z,3.24
2023-03-15T02:54:13.987Z,3.25
2023-03-15T02:55:13.965Z,3.29
2023-03-15T02:56:13.946Z,3.25
2023-03-15T02:57:13.992Z,3.21
2023-03-15T02:58:13.893Z,3.24
2023-03-15T02:59:13.859Z,3.17
2023-03-15T03:00:13.886Z,3.07
2023-03-15T03:01:13.865Z,3.16
2023-03-15T03:02:13.846Z,3.09
2023-03-15T03:03:13.826Z,3.15
2023-03-15T03:04:13.764Z,3.10
2023-03-15T03:05:13.732Z,3.18
2023-03-15T03:06:13.722Z,3.13
2023-03-15T03:07:13.716Z,3.05
2023-03-15T03:08:13.651Z,3.15
2023-03-15T03:09:13.647Z,2.95
2023-03-15T03:10:13.608Z,3.01
2023-03-15T03:11:13.648Z,2.90
2023-03-15T03:12:13.586Z,2.89
2023-03-15T03:13:13.550Z,2.93
2023-03-15T03:14:13.565Z,2.91
2023-03-15T03:15:13.502Z,2.81
2023-03-15T03:16:13.555Z,2.79
2023-03-15T03:17:13.537Z,2.54
2023-03-15T03:18:13.448Z,2.29
2023-03-15T03:19:13.529Z,1.96
2023-03-15T03:20:13.446Z,1.58
2023-03-15T03:21:13.387Z,1.31
2023-03-15T03:22:13.568Z,1.14
2023-03-15T03:23:13.358Z,1.00
2023-03-15T03:24:13.359Z,0.88
2023-03-15T03:25:13.356Z,0.77
2023-03-15T03:26:13.354Z,0.71
2023-03-15T03:27:13.299Z,0.69
2023-03-15T03:28:13.355Z,0.58
2023-03-15T03:29:13.332Z,0.51
2023-03-15T03:30:13.272Z,0.50
2023-03-15T03:31:13.305Z,0.50
2023-03-15T03:32:13.231Z,0.44
2023-03-15T03:33:13.250Z,0.44
2023-03-15T03:34:13.216Z,0.44
2023-03-15T03:35:15.587Z,0.40
2023-03-15T03:36:13.272Z,0.42
2023-03-15T03:37:13.270Z,0.47
2023-03-15T03:38:13.204Z,0.50
2023-03-15T03:39:13.194Z,0.51
2023-03-15T03:40:13.170Z,0.50
2023-03-15T03:41:13.168Z,0.52
2023-03-15T03:42:13.349Z,0.58
2023-03-15T03:43:13.128Z,0.52
2023-03-15T03:44:13.220Z,0.60
2023-03-15T03:45:13.145Z,0.51
2023-03-15T03:46:13.236Z,0.53
2023-03-15T03:47:13.169Z,0.53
2023-03-15T03:48:13.172Z,0.53
2023-03-15T03:49:13.120Z,0.60
2023-03-15T03:50:13.109Z,0.50
2023-03-15T03:51:13.124Z,0.49
2023-03-15T03:52:13.067Z,0.57
2023-03-15T03:53:13.070Z,0.61
2023-03-15T03:54:13.025Z,0.68
2023-03-15T03:55:13.007Z,0.77
2023-03-15T03:56:13.031Z,0.75
2023-03-15T03:57:13.060Z,0.75
2023-03-15T03:58:13.146Z,0.77
2023-03-15T03:59:12.942Z,0.81
2023-03-15T04:00:12.950Z,0.87
2023-03-15T04:01:12.983Z,0.96
2023-03-15T04:02:12.957Z,1.03
2023-03-15T04:03:12.965Z,1.01
2023-03-15T04:04:13.016Z,1.07
2023-03-15T04:05:12.891Z,1.14
2023-03-15T04:06:12.857Z,1.20
2023-03-15T04:07:12.840Z,1.23
2023-03-15T04:08:12.875Z,1.24
2023-03-15T04:09:12.812Z,1.34
2023-03-15T04:10:12.792Z,1.43
2023-03-15T04:11:12.817Z,1.45
2023-03-15T04:12:12.785Z,1.69
2023-03-15T04:13:12.834Z,1.70
2023-03-15T04:14:12.727Z,1.61
2023-03-15T04:15:12.703Z,1.71
2023-03-15T04:16:12.762Z,1.88
2023-03-15T04:17:12.670Z,1.97
2023-03-15T04:18:12.662Z,2.01
2023-03-15T04:19:12.630Z,2.20
2023-03-15T04:20:12.651Z,2.29
2023-03-15T04:21:12.581Z,2.24
2023-03-15T04:22:12.574Z,2.29
2023-03-15T04:23:12.550Z,2.36
2023-03-15T04:24:12.539Z,2.47
2023-03-15T04:25:12.534Z,2.57
2023-03-15T04:26:12.497Z,2.59
2023-03-15T04:27:12.472Z,2.61
2023-03-15T04:28:12.495Z,2.83
2023-03-15T04:29:12.466Z,2.92
2023-03-15T04:30:12.441Z,2.96
2023-03-15T04:31:12.492Z,2.99
2023-03-15T04:32:12.391Z,3.06
2023-03-15T04:33:12.388Z,3.03
2023-03-15T04:34:12.380Z,3.08
2023-03-15T04:35:12.395Z,3.11
2023-03-15T04:36:12.378Z,3.14
2023-03-15T04:37:12.323Z,2.97
2023-03-15T04:38:12.306Z,2.80
2023-03-15T04:39:12.302Z,2.75
2023-03-15T04:40:12.268Z,2.64
2023-03-15T04:41:12.270Z,2.34
2023-03-15T04:42:12.286Z,1.83
2023-03-15T04:43:12.273Z,1.84
2023-03-15T04:44:12.211Z,1.75
2023-03-15T04:45:12.189Z,1.76
2023-03-15T04:46:12.172Z,1.65
2023-03-15T04:47:12.179Z,1.54
2023-03-15T04:48:12.195Z,1.24
2023-03-15T04:49:12.150Z,1.27
2023-03-15T04:50:12.144Z,1.07
2023-03-15T04:51:12.120Z,1.02
2023-03-15T04:52:12.144Z,1.00
2023-03-15T04:53:12.148Z,0.93
2023-03-15T04:54:12.078Z,0.85
2023-03-15T04:55:12.084Z,0.81
2023-03-15T04:56:12.057Z,0.83
2023-03-15T04:57:12.062Z,0.75
2023-03-15T04:58:12.039Z,0.66
2023-03-15T04:59:12.078Z,0.56
2023-03-15T05:00:12.048Z,0.65
2023-03-15T05:01:12.096Z,0.66
2023-03-15T05:02:12.067Z,0.66
2023-03-15T05:03:11.982Z,0.63
2023-03-15T05:04:11.998Z,0.61
2023-03-15T05:05:11.957Z,0.55
2023-03-15T05:06:11.946Z,0.44
2023-03-15T05:07:11.906Z,0.52
2023-03-15T05:08:11.988Z,0.53
2023-03-15T05:09:11.903Z,0.53
2023-03-15T05:10:11.900Z,0.53
2023-03-15T05:11:11.937Z,0.50
2023-03-15T05:12:11.851Z,0.50
2023-03-15T05:13:11.849Z,0.50
2023-03-15T05:14:11.895Z,0.54
2023-03-15T05:15:11.865Z,0.58
2023-03-15T05:16:11.859Z,0.57
2023-03-15T05:17:11.779Z,0.59
2023-03-15T05:18:11.815Z,0.64
2023-03-15T05:19:11.754Z,0.61
2023-03-15T05:20:11.772Z,0.62
2023-03-15T05:21:11.777Z,0.60
2023-03-15T05:22:11.720Z,0.60
2023-03-15T05:23:11.707Z,0.61
2023-03-15T05:24:11.848Z,0.55
2023-03-15T05:25:11.713Z,0.58
2023-03-15T07:59:08.872Z,7.46
2023-03-15T08:00:08.835Z,7.70
2023-03-15T08:01:08.769Z,7.98
2023-03-15T08:02:08.795Z,8.49
2023-03-15T08:03:08.756Z,8.74
2023-03-15T08:04:08.589Z,8.72
2023-03-15T08:05:08.573Z,9.04
2023-03-15T08:06:08.640Z,9.05
2023-03-15T08:07:08.507Z,9.04
2023-03-15T08:08:08.978Z,9.22
2023-03-15T08:09:08.405Z,9.09
2023-03-15T08:10:09.018Z,8.47
2023-03-15T08:11:08.311Z,8.30
2023-03-15T08:12:08.339Z,8.48
2023-03-15T08:13:08.265Z,9.11
2023-03-15T08:14:08.160Z,8.13
2023-03-15T08:15:08.159Z,8.16
2023-03-15T08:16:08.560Z,8.36
2023-03-15T08:17:08.066Z,8.93
2023-03-15T08:18:08.015Z,7.66
2023-03-15T08:19:08.082Z,6.17
2023-03-15T08:20:08.094Z,5.47
2023-03-15T08:21:07.910Z,5.06
2023-03-15T08:22:08.091Z,4.93
2023-03-15T08:23:07.873Z,4.62
2023-03-15T08:24:07.823Z,4.53
2023-03-15T08:25:07.716Z,4.06
2023-03-15T08:26:08.485Z,3.66
2023-03-15T08:27:07.636Z,3.36
2023-03-15T08:28:07.586Z,2.95
2023-03-15T08:29:07.577Z,2.91
2023-03-15T08:30:07.476Z,2.57
2023-03-15T08:31:07.909Z,2.36
2023-03-15T08:32:07.612Z,2.09
2023-03-15T08:33:08.402Z,1.81
2023-03-15T08:34:07.409Z,1.52
2023-03-15T08:35:07.334Z,1.39
2023-03-15T08:36:07.357Z,1.77
2023-03-15T08:37:07.723Z,1.96
2023-03-15T08:38:07.233Z,2.30
2023-03-15T08:39:07.149Z,2.38
2023-03-15T08:40:07.120Z,2.42
2023-03-15T08:41:07.049Z,2.72
2023-03-15T08:42:07.276Z,2.93
2023-03-15T08:43:06.973Z,3.25
2023-03-15T08:44:06.963Z,3.54
2023-03-15T08:45:06.940Z,3.72
2023-03-15T08:46:06.879Z,4.04
2023-03-15T08:47:06.817Z,4.29
2023-03-15T08:48:06.731Z,4.30
2023-03-15T08:49:06.719Z,4.37
2023-03-15T08:50:06.700Z,4.59
2023-03-15T08:51:06.630Z,4.98
2023-03-15T08:52:06.565Z,4.33
2023-03-15T08:53:06.595Z,4.41
2023-03-15T08:54:06.550Z,4.48
2023-03-15T08:55:06.429Z,4.31
2023-03-15T08:56:06.431Z,4.40
2023-03-15T08:57:06.525Z,4.49
2023-03-15T08:58:06.320Z,4.74
2023-03-15T08:59:07.006Z,5.33
2023-03-15T09:00:06.254Z,5.38
2023-03-15T09:01:06.167Z,4.99
2023-03-15T09:02:06.258Z,5.16
2023-03-15T09:03:06.105Z,5.39
2023-03-15T09:04:06.076Z,5.34
2023-03-15T09:05:06.027Z,5.56
2023-03-15T09:06:06.057Z,6.17
2023-03-15T09:07:05.936Z,5.71
2023-03-15T09:08:05.895Z,5.98
2023-03-15T09:09:05.868Z,5.84
2023-03-15T09:10:05.846Z,5.99
2023-03-15T09:11:05.740Z,6.13
2023-03-15T09:12:05.705Z,5.59
2023-03-15T09:13:06.490Z,6.31
2023-03-15T09:14:05.616Z,6.25
2023-03-15T09:15:07.565Z,6.42
2023-03-15T09:16:05.506Z,6.96
2023-03-15T09:17:06.118Z,7.71
2023-03-15T09:18:05.407Z,8.76
2023-03-15T09:19:05.433Z,9.45
2023-03-15T09:20:05.299Z,8.58
2023-03-15T09:21:05.278Z,8.91
2023-03-15T09:22:16.868Z,8.69
2023-03-15T09:23:06.175Z,8.20
2023-03-15T09:24:05.121Z,7.58
2023-03-15T09:25:05.163Z,8.22
2023-03-15T09:26:05.049Z,8.69
2023-03-15T09:27:05.068Z,8.82
2023-03-15T09:28:04.969Z,8.71
2023-03-15T09:29:04.925Z,8.83
2023-03-15T09:30:04.902Z,8.98
2023-03-15T09:31:04.838Z,9.31
2023-03-15T09:32:04.761Z,8.73
2023-03-15T09:33:04.862Z,8.86
2023-03-15T09:34:04.663Z,9.08
2023-03-15T09:35:04.649Z,9.70
2023-03-15T09:36:04.805Z,10.32
2023-03-15T09:37:04.490Z,9.83
2023-03-15T09:38:04.481Z,10.32
2023-03-15T09:39:04.402Z,10.33
2023-03-15T09:40:04.375Z,10.12
2023-03-15T09:41:04.359Z,10.43
2023-03-15T09:42:06.461Z,10.55
2023-03-15T09:43:04.239Z,10.68
2023-03-15T09:44:04.291Z,10.10
2023-03-15T09:45:04.159Z,10.26
2023-03-15T09:46:04.126Z,10.31
2023-03-15T09:47:04.062Z,9.75
2023-03-15T09:48:04.518Z,10.08
2023-03-15T09:49:03.898Z,9.99
2023-03-15T09:50:03.963Z,8.24
2023-03-15T09:51:03.807Z,1.06
2023-03-15T09:52:03.773Z,0.34
2023-03-15T09:53:03.737Z,0.34
2023-03-15T09:54:03.714Z,0.34
2023-03-15T09:55:03.782Z,0.34
2023-03-15T09:56:03.694Z,0.34
2023-03-15T09:57:03.644Z,0.34
2023-03-15T09:58:03.649Z,0.34
2023-03-15T09:59:03.657Z,0.34
2023-03-15T10:00:03.619Z,0.34
2023-03-15T10:01:03.586Z,0.34
2023-03-15T10:02:03.599Z,0.34
2023-03-15T10:03:03.567Z,0.34
2023-03-15T10:04:03.571Z,0.34
2023-03-15T10:05:03.509Z,0.34
2023-03-15T10:06:03.529Z,0.34
2023-03-15T10:07:03.515Z,0.34
2023-03-15T10:08:03.573Z,0.34
2023-03-15T10:09:03.485Z,0.34
2023-03-15T10:10:03.490Z,0.34
2023-03-15T10:11:03.512Z,0.34
2023-03-15T10:12:03.552Z,0.34
2023-03-15T10:13:03.444Z,0.34
2023-03-15T10:14:03.461Z,0.34
2023-03-15T10:15:03.431Z,0.34
2023-03-15T10:16:03.693Z,0.34
2023-03-15T10:17:03.430Z,0.34
2023-03-15T10:18:03.436Z,0.34
2023-03-15T10:19:03.482Z,0.34
2023-03-15T10:20:03.531Z,0.41
2023-03-15T10:21:03.407Z,0.55
2023-03-15T10:22:03.391Z,0.55
2023-03-15T10:23:03.426Z,0.51
2023-03-15T10:24:03.375Z,0.50
2023-03-15T10:25:03.396Z,0.50
2023-03-15T10:26:03.344Z,0.51
2023-03-15T10:27:03.444Z,0.60
2023-03-15T10:28:03.419Z,0.57
2023-03-15T10:29:03.365Z,0.53
2023-03-15T10:30:03.383Z,0.51
2023-03-15T10:31:03.397Z,0.50
2023-03-15T10:32:03.338Z,0.53
2023-03-15T10:33:03.631Z,0.61
2023-03-15T10:34:03.380Z,0.65
2023-03-15T10:35:03.334Z,0.62
2023-03-15T10:36:11.717Z,0.59
2023-03-15T10:37:07.069Z,0.59
2023-03-15T10:38:03.356Z,0.57
2023-03-15T10:39:03.330Z,0.60
2023-03-15T10:40:03.962Z,0.62
2023-03-15T10:41:03.343Z,0.85
2023-03-15T10:42:03.329Z,1.98
2023-03-15T10:43:03.339Z,3.37
2023-03-15T10:44:03.356Z,5.89
2023-03-15T10:45:03.316Z,7.93
2023-03-15T10:46:03.391Z,8.87
2023-03-15T10:47:12.992Z,9.02
2023-03-15T10:48:04.303Z,9.04
2023-03-15T10:49:03.303Z,9.45
2023-03-15T10:50:03.212Z,10.24
2023-03-15T10:51:03.226Z,11.84
2023-03-15T10:52:03.176Z,15.28
2023-03-15T10:53:04.072Z,17.96
2023-03-15T10:54:03.187Z,19.44
2023-03-15T10:55:04.523Z,23.37
2023-03-15T10:56:03.116Z,24.82
2023-03-15T10:57:03.140Z,28.04
2023-03-15T10:58:03.102Z,29.21
2023-03-15T10:59:12.434Z,34.16
2023-03-15T11:00:04.138Z,34.23
2023-03-15T11:01:03.002Z,34.98
2023-03-15T11:02:02.983Z,38.14
2023-03-15T11:03:03.020Z,44.86
2023-03-15T11:04:02.960Z,59.01
2023-03-15T11:05:02.938Z,67.94
2023-03-15T11:06:02.856Z,72.49
2023-03-15T11:07:02.870Z,78.28
2023-03-15T11:08:02.840Z,87.16
2023-03-15T11:09:02.797Z,88.47
2023-03-15T11:10:02.807Z,99.96
2023-03-15T11:11:02.730Z,102.47
2023-03-15T11:12:02.685Z,109.15
2023-03-15T11:13:03.536Z,115.53
2023-03-15T11:14:02.699Z,116.15
2023-03-15T11:15:02.603Z,120.29
2023-03-15T11:16:02.719Z,136.24
2023-03-15T11:17:02.584Z,144.48
2023-03-15T11:18:02.557Z,174.80
2023-03-15T11:19:02.561Z,184.92
2023-03-15T11:20:02.491Z,183.84
2023-03-15T11:21:02.475Z,207.12
2023-03-15T11:22:02.436Z,229.98
2023-03-15T11:23:02.391Z,229.03
2023-03-15T11:24:02.376Z,231.91
2023-03-15T11:25:02.473Z,258.81
2023-03-15T11:26:02.295Z,260.55
2023-03-15T11:27:02.271Z,263.49
2023-03-15T11:28:02.236Z,295.76
2023-03-15T11:29:02.232Z,332.30
2023-03-15T11:30:02.448Z,312.38
2023-03-15T11:31:02.123Z,312.43
2023-03-15T11:32:02.103Z,312.91
2023-03-15T11:33:02.272Z,321.72
2023-03-15T11:34:02.132Z,372.88
2023-03-15T11:35:01.986Z,413.51
2023-03-15T11:36:02.099Z,447.37
2023-03-15T11:37:08.373Z,440.95
2023-03-15T11:38:14.676Z,441.60
2023-03-15T11:39:03.198Z,445.04
2023-03-15T11:40:11.274Z,452.61
2023-03-15T11:41:02.837Z,443.60
2023-03-15T11:42:01.776Z,451.79
2023-03-15T11:43:01.734Z,442.43
2023-03-15T11:45:02.540Z,477.37
2023-03-15T12:06:03.701Z,814.64
2023-03-15T14:22:04.922Z,964.41
2023-03-15T15:43:54.840Z,683.46
2023-03-15T15:44:54.664Z,681.38
2023-03-15T15:45:54.626Z,693.58
2023-03-15T15:46:55.193Z,685.81
2023-03-15T15:47:54.676Z,673.57
2023-03-15T15:48:55.151Z,696.54
2023-03-15T15:49:54.583Z,694.35
2023-03-15T15:50:55.132Z,663.77
2023-03-15T15:51:54.440Z,676.92
2023-03-15T15:52:54.608Z,654.47
2023-03-15T15:53:54.375Z,632.88
2023-03-15T15:54:54.357Z,625.99
2023-03-15T15:55:54.311Z,623.08
2023-03-15T15:56:54.349Z,642.25
2023-03-15T15:57:55.717Z,623.38
2023-03-15T15:58:54.252Z,617.22
2023-03-15T15:59:54.256Z,606.71
2023-03-15T16:00:54.217Z,602.89
2023-03-15T16:02:00.549Z,595.51
2023-03-15T16:02:55.186Z,596.31
2023-03-15T16:03:54.162Z,599.74
2023-03-15T16:04:54.078Z,596.17
2023-03-15T16:05:54.146Z,585.37
2023-03-15T16:06:54.024Z,608.91
2023-03-15T16:07:54.053Z,612.17
2023-03-15T16:08:53.985Z,612.67
2023-03-15T16:09:55.401Z,578.98
2023-03-15T16:10:53.933Z,568.84
2023-03-15T16:11:53.961Z,576.82
2023-03-15T16:12:53.887Z,580.34
2023-03-15T16:13:53.883Z,578.54
2023-03-15T16:14:53.828Z,577.69
2023-03-15T16:15:53.950Z,568.64
2023-03-15T16:16:53.769Z,571.98
2023-03-15T16:17:53.731Z,579.77
2023-03-15T16:18:53.721Z,566.85
2023-03-15T16:19:53.756Z,562.81
2023-03-15T16:20:53.663Z,582.44
2023-03-15T16:21:53.665Z,552.97
2023-03-15T16:22:53.704Z,563.50
2023-03-15T16:23:53.591Z,577.26
2023-03-15T16:24:53.568Z,574.44
2023-03-15T16:25:53.546Z,574.58
2023-03-15T16:26:53.558Z,538.24
2023-03-15T16:27:53.529Z,545.80
2023-03-15T16:28:53.474Z,554.80
2023-03-15T16:29:53.438Z,563.30
2023-03-15T16:30:53.488Z,570.49
2023-03-15T16:31:54.719Z,557.17
2023-03-15T16:32:53.455Z,558.36
2023-03-15T16:33:53.370Z,551.60
2023-03-15T16:34:53.380Z,548.11
2023-03-15T16:35:53.442Z,546.32
2023-03-15T16:36:53.291Z,570.78
2023-03-15T16:37:53.280Z,556.97
2023-03-15T16:38:53.259Z,540.94
2023-03-15T16:39:53.225Z,530.77
2023-03-15T16:40:53.297Z,519.50
2023-03-15T16:41:53.255Z,523.27
2023-03-15T16:42:53.135Z,535.58
2023-03-15T16:43:53.144Z,516.96
2023-03-15T16:44:53.096Z,508.11
2023-03-15T16:45:53.079Z,505.61
2023-03-15T16:46:53.125Z,510.86
2023-03-15T16:47:53.076Z,508.79
2023-03-15T16:48:53.072Z,508.16
2023-03-15T16:49:53.010Z,492.15
2023-03-15T16:50:52.985Z,488.33
2023-03-15T16:51:53.022Z,470.61
2023-03-15T16:52:52.998Z,475.90
2023-03-15T16:54:02.248Z,488.99
2023-03-15T16:54:53.947Z,489.51
2023-03-15T16:55:52.929Z,490.03
2023-03-15T16:56:52.926Z,490.23
2023-03-15T16:57:52.899Z,502.54
2023-03-15T16:58:52.892Z,493.94
2023-03-15T16:59:52.880Z,513.58
2023-03-15T17:00:52.854Z,536.89
2023-03-15T17:01:52.840Z,527.31
2023-03-15T17:02:52.831Z,499.52
2023-03-15T17:03:52.846Z,503.46
2023-03-15T17:04:52.828Z,492.76
2023-03-15T17:05:52.789Z,476.69
2023-03-15T17:06:52.823Z,466.95
2023-03-15T17:07:52.767Z,446.85
2023-03-15T17:08:52.750Z,462.61
2023-03-15T17:09:52.787Z,467.19
2023-03-15T17:10:52.709Z,458.99
2023-03-15T17:11:52.642Z,460.62
2023-03-15T17:12:52.632Z,456.54
2023-03-15T17:13:52.602Z,447.80
2023-03-15T17:14:52.607Z,437.80
2023-03-15T17:15:52.636Z,435.94
2023-03-15T17:16:52.556Z,445.92
2023-03-15T17:17:52.553Z,440.86
2023-03-15T17:18:52.546Z,449.06
2023-03-15T17:19:52.525Z,453.44
2023-03-15T17:20:52.501Z,453.59
2023-03-15T17:21:52.497Z,464.58
2023-03-15T17:22:52.453Z,460.03
2023-03-15T17:23:52.499Z,449.77
2023-03-15T17:24:52.421Z,431.74
2023-03-15T17:25:52.418Z,434.61
2023-03-15T17:26:52.392Z,427.58
2023-03-15T17:27:52.456Z,412.30
2023-03-15T17:28:52.368Z,407.18
2023-03-15T17:29:52.351Z,403.13
2023-03-15T17:30:59.847Z,409.03
2023-03-15T17:31:53.340Z,409.28
2023-03-15T17:32:52.368Z,410.37
2023-03-15T17:33:52.310Z,417.54
2023-03-15T17:34:52.265Z,417.41
2023-03-15T17:35:52.294Z,410.03
2023-03-15T17:36:52.237Z,404.47
2023-03-15T17:37:52.233Z,420.46
2023-03-15T17:38:52.217Z,421.17
2023-03-15T17:39:52.203Z,421.83
2023-03-15T17:40:52.209Z,423.29
2023-03-15T17:41:52.183Z,426.61
2023-03-15T17:42:52.190Z,405.92
2023-03-15T17:43:52.138Z,417.93
2023-03-15T17:44:52.146Z,424.05
2023-03-15T17:45:52.110Z,418.55
2023-03-15T17:46:52.172Z,435.65
2023-03-15T17:47:52.077Z,445.85
2023-03-15T17:48:52.046Z,447.56
2023-03-15T17:49:52.050Z,449.24
2023-03-15T17:50:52.021Z,457.08
2023-03-15T17:51:52.043Z,462.05
2023-03-15T17:52:52.001Z,457.83
2023-03-15T17:53:51.953Z,457.81
2023-03-15T17:54:51.980Z,451.85
2023-03-15T17:55:51.919Z,443.93
2023-03-15T17:56:51.925Z,438.53
2023-03-15T17:57:55.060Z,437.03
2023-03-15T17:58:51.901Z,437.08
2023-03-15T17:59:51.865Z,433.99
2023-03-15T18:00:51.888Z,433.24
2023-03-15T18:01:51.915Z,437.29
2023-03-15T18:02:56.196Z,434.69
2023-03-15T18:03:51.818Z,437.25
2023-03-15T18:04:51.767Z,415.06
2023-03-15T18:06:51.735Z,406.61
2023-03-15T18:07:58.582Z,409.14
2023-03-15T18:09:51.773Z,407.73
2023-03-15T18:38:51.772Z,319.58
2023-03-15T19:15:50.384Z,270.90
2023-03-15T19:16:50.429Z,267.69
2023-03-15T19:17:50.356Z,278.79
2023-03-15T19:18:50.314Z,273.28
2023-03-15T19:19:50.279Z,266.58
2023-03-15T19:21:50.273Z,260.91
2023-03-15T19:22:50.266Z,266.07
2023-03-15T19:23:50.219Z,266.25
2023-03-15T19:24:50.192Z,266.02
2023-03-15T19:25:50.202Z,263.26
2023-03-15T19:26:50.162Z,252.61
2023-03-15T19:27:50.132Z,260.24
2023-03-15T19:28:50.088Z,260.54
2023-03-15T19:29:50.064Z,252.07
2023-03-15T19:30:50.107Z,254.16
2023-03-15T19:31:50.009Z,256.95
2023-03-15T19:32:50.315Z,262.14
2023-03-15T19:33:49.979Z,254.93
2023-03-15T19:34:49.957Z,255.30
2023-03-15T19:35:49.999Z,254.51
2023-03-15T19:36:49.883Z,252.07
2023-03-15T19:37:49.876Z,250.94
2023-03-15T19:38:49.850Z,248.32
2023-03-15T19:39:49.829Z,246.07
2023-03-15T19:40:49.836Z,242.38
2023-03-15T19:41:49.760Z,240.57
2023-03-15T19:42:49.728Z,250.10
2023-03-15T19:43:49.706Z,246.69
2023-03-15T19:44:49.680Z,237.34
2023-03-15T19:45:49.773Z,237.67
2023-03-15T19:46:49.681Z,240.78
2023-03-15T19:47:49.627Z,240.90
2023-03-15T19:48:49.616Z,238.46
2023-03-15T19:49:49.570Z,239.29
2023-03-15T19:50:49.562Z,232.39
2023-03-15T19:51:49.532Z,232.88
2023-03-15T19:52:49.496Z,226.96
2023-03-15T19:53:49.472Z,224.94
2023-03-15T19:54:50.096Z,223.18
2023-03-15T19:55:49.418Z,220.34
2023-03-15T19:56:49.408Z,221.08
2023-03-15T19:57:49.372Z,211.00
2023-03-15T19:58:49.408Z,209.67
2023-03-15T19:59:49.352Z,213.02
2023-03-15T20:00:49.326Z,211.83
2023-03-15T20:01:49.365Z,211.30
2023-03-15T20:02:49.276Z,218.06
2023-03-15T20:03:49.333Z,218.26
2023-03-15T20:04:49.231Z,218.64
2023-03-15T20:05:49.214Z,218.04
2023-03-15T20:06:49.198Z,220.34
2023-03-15T20:07:49.210Z,213.03
2023-03-15T20:08:49.169Z,216.73
2023-03-15T20:09:49.169Z,219.13
2023-03-15T20:10:49.145Z,222.87
2023-03-15T20:11:49.121Z,220.75
2023-03-15T20:12:49.100Z,219.72
2023-03-15T20:13:49.075Z,220.82
2023-03-15T20:15:49.074Z,217.19
2023-03-15T20:17:48.971Z,210.22
2023-03-15T20:18:48.959Z,214.86
2023-03-15T20:19:48.951Z,205.06
2023-03-15T20:20:48.916Z,212.27
2023-03-15T20:21:48.890Z,202.78
2023-03-15T20:24:48.870Z,203.29
2023-03-15T23:14:56.020Z,109.07
2023-03-15T23:30:45.158Z,107.22
2023-03-15T23:34:56.736Z,101.13
